createdAt,value
2019-04-20T00:00:23.277Z,97.60
2019-04-20T00:02:55.488Z,97.80
2019-04-20T00:05:25.159Z,97.90
2019-04-20T00:07:55.794Z,97.80
2019-04-20T00:10:28.821Z,97.90
2019-04-20T00:13:09.196Z,98.10
2019-04-20T00:15:28.286Z,98.10
2019-04-20T00:18:01.867Z,97.90
2019-04-20T00:20:32.331Z,98.00
2019-04-20T00:23:19.861Z,98.40
2019-04-20T00:25:54.598Z,98.60
2019-04-20T00:28:35.176Z,98.70
2019-04-20T00:31:07.267Z,98.90
2019-04-20T00:33:30.896Z,99.30
2019-04-20T00:35:51.059Z,99.80
2019-04-20T00:38:21.521Z,99.80
2019-04-20T00:40:59.436Z,99.80
2019-04-20T00:43:28.305Z,99.90
2019-04-20T00:46:04.853Z,99.90
2019-04-20T00:48:35.279Z,99.90
2019-04-20T00:51:19.634Z,99.80
2019-04-20T00:53:34.181Z,99.90
2019-04-20T00:55:59.150Z,99.90
2019-04-20T00:58:37.125Z,99.90
2019-04-20T01:01:23.670Z,99.90
2019-04-20T01:03:47.396Z,99.90
2019-04-20T01:06:22.220Z,99.90
2019-04-20T01:08:42.255Z,99.90
2019-04-20T01:11:12.344Z,99.90
2019-04-20T01:13:48.703Z,99.90
2019-04-20T01:16:25.508Z,99.90
2019-04-20T01:18:47.075Z,99.90
2019-04-20T01:21:20.298Z,99.90
2019-04-20T01:23:53.309Z,99.90
2019-04-20T01:26:20.609Z,99.90
2019-04-20T01:29:03.941Z,99.90
2019-04-20T01:31:29.287Z,99.90
2019-04-20T01:33:58.947Z,99.90
2019-04-20T01:36:40.612Z,99.90
2019-04-20T01:39:05.485Z,99.90
2019-04-20T01:41:24.431Z,99.90
2019-04-20T01:43:54.387Z,99.90
2019-04-20T01:46:26.695Z,99.90
2019-04-20T01:48:58.254Z,99.90
2019-04-20T01:51:30.675Z,99.90
2019-04-20T01:54:18.810Z,99.90
2019-04-20T01:56:43.424Z,99.90
2019-04-20T01:59:19.961Z,99.90
2019-04-20T02:01:55.652Z,99.90
2019-04-20T02:04:27.948Z,99.90
2019-04-20T02:06:57.926Z,99.90
2019-04-20T02:09:26.417Z,99.90
2019-04-20T02:11:55.714Z,99.90
2019-04-20T02:14:34.178Z,99.90
2019-04-20T02:17:08.621Z,99.90
2019-04-20T02:19:43.107Z,99.90
2019-04-20T02:22:13.584Z,99.90
2019-04-20T02:24:30.198Z,99.90
2019-04-20T02:26:59.909Z,99.90
2019-04-20T02:29:50.714Z,99.90
2019-04-20T02:32:45.651Z,99.90
2019-04-20T02:35:01.043Z,99.90
2019-04-20T02:38:03.219Z,99.90
2019-04-20T02:47:45.696Z,99.90
2019-04-20T02:50:19.184Z,99.90
2019-04-20T02:55:26.701Z,99.90
2019-04-20T02:57:53.049Z,99.90
2019-04-20T03:02:35.948Z,99.90
2019-04-20T03:05:06.672Z,99.90
2019-04-20T03:07:34.331Z,99.90
2019-04-20T03:10:14.934Z,99.90
2019-04-20T03:12:42.850Z,99.90
2019-04-20T03:15:13.903Z,99.90
2019-04-20T03:17:50.777Z,99.90
2019-04-20T03:20:24.204Z,99.90
2019-04-20T03:23:11.594Z,99.90
2019-04-20T03:25:45.458Z,99.90
2019-04-20T03:28:13.113Z,99.90
2019-04-20T03:33:30.942Z,99.90
2019-04-20T03:36:06.103Z,99.90
2019-04-20T03:38:19.820Z,99.90
2019-04-20T03:40:46.688Z,99.90
2019-04-20T03:43:03.740Z,99.90
2019-04-20T03:45:43.670Z,99.90
2019-04-20T03:48:16.099Z,99.90
2019-04-20T03:50:57.741Z,99.90
2019-04-20T03:53:27.847Z,99.90
2019-04-20T03:56:26.825Z,99.90
2019-04-20T03:58:47.227Z,99.90
2019-04-20T04:01:37.460Z,99.90
2019-04-20T04:03:59.230Z,99.90
2019-04-20T04:06:23.603Z,99.90
2019-04-20T04:08:58.630Z,99.90
2019-04-20T04:11:34.076Z,99.90
2019-04-20T04:13:43.856Z,99.90
2019-04-20T04:16:16.800Z,99.90
2019-04-20T04:18:49.188Z,99.90
2019-04-20T04:21:21.740Z,99.90
2019-04-20T04:24:02.233Z,99.90
2019-04-20T04:26:34.362Z,99.90
2019-04-20T04:29:13.708Z,99.90
2019-04-20T04:31:39.077Z,99.90
2019-04-20T04:34:09.341Z,99.90
2019-04-20T04:36:44.559Z,99.90
2019-04-20T04:39:15.440Z,99.90
2019-04-20T04:41:43.580Z,99.90
2019-04-20T04:44:10.980Z,99.90
2019-04-20T04:46:26.892Z,99.90
2019-04-20T04:49:06.854Z,99.90
2019-04-20T04:51:38.502Z,99.90
2019-04-20T04:54:12.726Z,99.90
2019-04-20T04:56:30.814Z,99.90
2019-04-20T04:59:00.840Z,99.90
2019-04-20T05:01:32.729Z,99.90
2019-04-20T05:04:22.850Z,99.90
2019-04-20T05:06:48.091Z,99.90
2019-04-20T05:09:09.075Z,99.90
2019-04-20T05:11:36.649Z,99.90
2019-04-20T05:14:12.148Z,99.90
2019-04-20T05:16:51.036Z,99.90
2019-04-20T05:19:29.892Z,99.90
2019-04-20T05:22:11.938Z,99.90
2019-04-20T05:24:40.345Z,99.90
2019-04-20T05:27:32.056Z,99.90
2019-04-20T05:29:42.818Z,99.90
2019-04-20T05:32:17.023Z,99.90
2019-04-20T05:35:06.712Z,99.90
2019-04-20T05:37:41.271Z,99.90
2019-04-20T05:40:10.789Z,99.90
2019-04-20T05:42:42.904Z,99.90
2019-04-20T05:45:11.296Z,99.90
2019-04-20T05:47:40.095Z,99.90
2019-04-20T05:50:04.967Z,99.90
2019-04-20T05:52:53.918Z,99.90
2019-04-20T05:55:15.962Z,99.90
2019-04-20T05:57:51.018Z,99.90
2019-04-20T06:00:24.679Z,99.90
2019-04-20T06:02:49.768Z,99.90
2019-04-20T06:05:23.955Z,99.90
2019-04-20T06:07:50.595Z,99.90
2019-04-20T06:10:27.651Z,99.90
2019-04-20T06:12:52.989Z,99.90
2019-04-20T06:15:46.666Z,99.90
2019-04-20T06:18:23.180Z,99.90
2019-04-20T06:21:02.271Z,99.90
2019-04-20T06:23:53.465Z,99.90
2019-04-20T06:26:30.135Z,99.90
2019-04-20T06:28:38.817Z,99.90
2019-04-20T06:31:23.945Z,99.90
2019-04-20T06:34:25.644Z,99.90
2019-04-20T06:36:49.924Z,99.90
2019-04-20T06:39:19.972Z,99.90
2019-04-20T06:47:04.180Z,99.30
2019-04-20T06:51:59.405Z,96.70
2019-04-20T06:54:48.504Z,95.50
2019-04-20T06:57:18.095Z,95.20
2019-04-20T06:59:47.431Z,93.80
2019-04-20T07:02:29.506Z,93.80
2019-04-20T07:05:00.170Z,95.00
2019-04-20T07:07:26.605Z,93.40
2019-04-20T07:10:06.726Z,92.70
2019-04-20T07:12:23.013Z,92.10
2019-04-20T07:14:47.459Z,90.70
2019-04-20T07:17:44.001Z,87.60
2019-04-20T07:20:01.415Z,86.70
2019-04-20T07:22:39.440Z,82.80
2019-04-20T07:25:14.273Z,81.10
2019-04-20T07:27:51.623Z,82.70
2019-04-20T07:30:16.505Z,80.70
2019-04-20T07:35:22.120Z,77.60
2019-04-20T07:42:57.701Z,72.30
2019-04-20T07:45:30.803Z,69.90
2019-04-20T07:48:09.340Z,68.80
2019-04-20T07:50:27.034Z,68.10
2019-04-20T07:52:51.180Z,65.30
2019-04-20T07:55:40.513Z,62.70
2019-04-20T07:57:58.030Z,61.00
2019-04-20T08:00:51.903Z,59.60
2019-04-20T08:03:28.402Z,59.60
2019-04-20T08:05:46.993Z,59.20
2019-04-20T08:08:27.168Z,58.10
2019-04-20T08:10:53.678Z,59.30
2019-04-20T08:13:43.078Z,60.50
2019-04-20T08:16:00.815Z,61.00
2019-04-20T08:18:32.221Z,61.10
2019-04-20T08:21:16.660Z,60.40
2019-04-20T08:23:29.890Z,58.80
2019-04-20T08:25:53.249Z,58.70
2019-04-20T08:28:23.301Z,59.50
2019-04-20T08:31:05.016Z,58.80
2019-04-20T08:33:56.859Z,58.90
2019-04-20T08:36:22.822Z,59.10
2019-04-20T08:41:19.403Z,59.10
2019-04-20T08:43:59.078Z,61.30
2019-04-20T08:46:26.472Z,61.90
2019-04-20T08:48:58.148Z,61.40
2019-04-20T08:51:25.845Z,60.80
2019-04-20T08:53:59.928Z,60.00
2019-04-20T08:56:18.541Z,59.90
2019-04-20T08:58:39.310Z,62.00
2019-04-20T09:01:14.164Z,62.30
2019-04-20T09:03:51.217Z,62.20
2019-04-20T09:06:29.562Z,64.80
2019-04-20T09:08:53.884Z,63.80
2019-04-20T09:11:31.147Z,59.20
2019-04-20T09:13:50.116Z,58.30
2019-04-20T09:16:19.884Z,58.50
2019-04-20T09:18:56.912Z,56.50
2019-04-20T09:21:30.928Z,56.60
2019-04-20T09:24:25.429Z,55.10
2019-04-20T09:26:43.236Z,56.10
2019-04-20T09:29:07.278Z,54.10
2019-04-20T09:31:43.735Z,54.80
2019-04-20T09:34:15.930Z,52.30
2019-04-20T09:36:56.364Z,51.30
2019-04-20T09:39:35.946Z,51.30
2019-04-20T09:42:01.841Z,50.40
2019-04-20T09:44:38.707Z,51.40
2019-04-20T09:47:07.324Z,51.30
2019-04-20T09:49:49.381Z,50.70
2019-04-20T09:52:22.996Z,48.70
2019-04-20T09:54:56.361Z,49.40
2019-04-20T09:57:29.473Z,50.50
2019-04-20T09:59:57.674Z,49.40
2019-04-20T10:02:18.725Z,49.30
2019-04-20T10:04:44.392Z,50.20
2019-04-20T10:07:17.978Z,49.70
2019-04-20T10:09:46.909Z,49.00
2019-04-20T10:12:17.518Z,48.90
2019-04-20T10:14:47.115Z,48.70
2019-04-20T10:17:17.922Z,48.80
2019-04-20T10:19:48.334Z,48.80
2019-04-20T10:22:18.399Z,48.30
2019-04-20T10:24:50.342Z,48.60
2019-04-20T10:27:19.332Z,48.70
2019-04-20T10:29:51.344Z,48.50
2019-04-20T10:32:21.471Z,47.60
2019-04-20T10:34:52.422Z,47.70
2019-04-20T10:37:24.026Z,49.40
2019-04-20T10:39:54.440Z,48.70
2019-04-20T10:42:24.020Z,48.00
2019-04-20T10:44:56.732Z,48.10
2019-04-20T10:47:25.278Z,47.60
2019-04-20T10:49:55.353Z,48.80
2019-04-20T10:52:26.074Z,48.80
2019-04-20T10:54:56.577Z,48.90
2019-04-20T10:57:26.098Z,48.30
2019-04-20T10:59:55.631Z,47.50
2019-04-20T11:02:25.880Z,47.40
2019-04-20T11:04:57.006Z,47.50
2019-04-20T11:07:28.320Z,45.60
2019-04-20T11:10:10.673Z,45.40
2019-04-20T11:14:56.504Z,44.80
2019-04-20T11:17:29.719Z,46.20
2019-04-20T11:19:57.249Z,45.00
2019-04-20T11:22:28.314Z,46.10
2019-04-20T11:24:58.538Z,45.90
2019-04-20T11:27:28.197Z,44.00
2019-04-20T11:29:58.723Z,45.10
2019-04-20T11:32:28.552Z,44.90
2019-04-20T11:35:01.010Z,45.20
2019-04-20T11:37:29.151Z,45.10
2019-04-20T11:39:59.073Z,45.10
2019-04-20T11:42:30.429Z,44.40
2019-04-20T11:45:00.402Z,44.60
2019-04-20T11:47:31.466Z,44.40
2019-04-20T11:50:01.748Z,44.80
2019-04-20T11:52:31.937Z,43.20
2019-04-20T11:55:04.316Z,43.80
2019-04-20T11:57:33.833Z,44.00
2019-04-20T12:00:05.471Z,44.80
2019-04-20T12:02:42.220Z,44.10
2019-04-20T12:05:26.212Z,43.40
2019-04-20T12:08:05.089Z,43.60
2019-04-20T12:10:35.056Z,42.90
2019-04-20T12:13:05.958Z,42.80
2019-04-20T12:15:38.627Z,42.40
2019-04-20T12:18:07.527Z,43.20
2019-04-20T12:20:38.936Z,44.00
2019-04-20T12:23:08.675Z,43.50
2019-04-20T12:25:40.948Z,42.90
2019-04-20T12:28:09.602Z,42.70
2019-04-20T12:30:39.724Z,42.30
2019-04-20T12:33:11.485Z,42.90
2019-04-20T12:35:42.414Z,43.40
2019-04-20T12:38:12.706Z,43.10
2019-04-20T12:40:42.262Z,43.10
2019-04-20T12:43:13.098Z,43.10
2019-04-20T12:45:44.040Z,43.20
2019-04-20T12:48:13.806Z,44.40
2019-04-20T12:50:43.818Z,44.10
2019-04-20T12:53:14.729Z,43.50
2019-04-20T12:55:44.441Z,43.80
2019-04-20T12:58:14.611Z,43.20
2019-04-20T13:00:49.917Z,44.10
2019-04-20T13:03:21.290Z,44.30
2019-04-20T13:05:52.000Z,43.50
2019-04-20T13:08:29.189Z,42.90
2019-04-20T13:11:10.817Z,43.50
2019-04-20T13:13:46.342Z,43.80
2019-04-20T13:16:18.430Z,43.90
2019-04-20T13:18:50.809Z,43.00
2019-04-20T13:21:21.015Z,43.70
2019-04-20T13:23:51.153Z,42.50
2019-04-20T13:26:20.718Z,43.50
2019-04-20T13:28:50.891Z,44.10
2019-04-20T13:31:21.871Z,44.10
2019-04-20T13:33:52.728Z,43.00
2019-04-20T13:36:22.183Z,43.30
2019-04-20T13:38:52.252Z,43.00
2019-04-20T13:41:22.092Z,41.90
2019-04-20T13:43:54.179Z,42.80
2019-04-20T13:46:22.983Z,42.90
2019-04-20T13:48:53.182Z,42.90
2019-04-20T13:51:23.022Z,42.80
2019-04-20T13:53:53.299Z,43.00
2019-04-20T13:56:25.845Z,42.50
2019-04-20T13:58:56.348Z,42.70
2019-04-20T14:01:34.726Z,43.80
2019-04-20T14:04:06.171Z,42.10
2019-04-20T14:06:37.282Z,42.20
2019-04-20T14:09:09.642Z,42.70
2019-04-20T14:11:39.583Z,41.60
2019-04-20T14:14:09.035Z,41.50
2019-04-20T14:16:39.015Z,41.50
2019-04-20T14:19:09.296Z,40.30
2019-04-20T14:21:38.854Z,40.50
2019-04-20T14:24:10.903Z,41.70
2019-04-20T14:26:41.228Z,40.80
2019-04-20T14:29:10.804Z,40.00
2019-04-20T14:31:41.800Z,40.00
2019-04-20T14:34:11.399Z,39.60
2019-04-20T14:36:41.260Z,38.50
2019-04-20T14:39:11.983Z,40.40
2019-04-20T14:41:42.335Z,40.00
2019-04-20T14:44:12.171Z,39.40
2019-04-20T14:46:42.021Z,38.40
2019-04-20T14:49:12.593Z,40.00
2019-04-20T14:51:42.129Z,39.40
2019-04-20T14:54:13.868Z,39.70
2019-04-20T14:56:45.399Z,39.20
2019-04-20T14:59:20.499Z,39.80
2019-04-20T15:01:52.481Z,40.00
2019-04-20T15:04:24.940Z,39.90
2019-04-20T15:06:53.280Z,39.70
2019-04-20T15:09:24.588Z,39.20
2019-04-20T15:11:54.751Z,40.70
2019-04-20T15:14:24.869Z,40.40
2019-04-20T15:16:54.810Z,40.00
2019-04-20T15:19:25.827Z,40.40
2019-04-20T15:22:07.418Z,39.40
2019-04-20T15:24:37.586Z,40.20
2019-04-20T15:27:07.280Z,40.00
2019-04-20T15:29:38.123Z,39.90
2019-04-20T15:32:08.555Z,39.70
2019-04-20T15:34:39.115Z,41.10
2019-04-20T15:37:10.044Z,39.40
2019-04-20T15:39:39.611Z,39.80
2019-04-20T15:42:09.680Z,40.20
2019-04-20T15:44:39.704Z,39.20
2019-04-20T15:47:09.366Z,38.30
2019-04-20T15:49:39.945Z,38.60
2019-04-20T15:52:13.557Z,39.50
2019-04-20T15:54:41.028Z,39.30
2019-04-20T15:57:16.517Z,39.60
2019-04-20T15:59:42.808Z,39.90
2019-04-20T16:02:17.632Z,38.50
2019-04-20T16:05:00.911Z,39.40
2019-04-20T16:07:37.838Z,38.40
2019-04-20T16:10:09.401Z,38.00
2019-04-20T16:12:36.676Z,39.30
2019-04-20T16:15:07.567Z,38.20
2019-04-20T16:17:41.815Z,39.10
2019-04-20T16:20:15.678Z,38.60
2019-04-20T16:22:42.626Z,37.60
2019-04-20T16:25:25.879Z,38.50
2019-04-20T16:27:55.931Z,38.20
2019-04-20T16:30:25.576Z,38.20
2019-04-20T16:32:56.505Z,37.60
2019-04-20T16:35:26.641Z,38.50
2019-04-20T16:37:56.250Z,37.20
2019-04-20T16:40:25.788Z,37.80
2019-04-20T16:42:56.358Z,37.10
2019-04-20T16:45:25.884Z,38.00
2019-04-20T16:47:55.370Z,37.80
2019-04-20T16:50:24.866Z,39.40
2019-04-20T16:52:54.968Z,38.40
2019-04-20T16:55:25.114Z,39.20
2019-04-20T16:57:55.535Z,39.50
2019-04-20T17:00:25.486Z,40.00
2019-04-20T17:02:56.255Z,40.30
2019-04-20T17:05:25.945Z,40.20
2019-04-20T17:07:58.309Z,40.20
2019-04-20T17:10:28.726Z,39.60
2019-04-20T17:12:59.802Z,40.00
2019-04-20T17:15:29.660Z,41.00
2019-04-20T17:17:59.258Z,40.50
2019-04-20T17:20:28.987Z,40.90
2019-04-20T17:22:58.856Z,41.30
2019-04-20T17:25:30.119Z,42.50
2019-04-20T17:28:17.345Z,42.40
2019-04-20T17:31:04.951Z,43.10
2019-04-20T17:33:50.536Z,43.80
2019-04-20T17:36:17.550Z,44.50
2019-04-20T17:38:47.555Z,46.10
2019-04-20T17:41:34.723Z,48.00
2019-04-20T17:44:01.473Z,48.20
2019-04-20T17:46:27.256Z,49.30
2019-04-20T17:49:07.553Z,49.30
2019-04-20T17:51:40.023Z,49.60
2019-04-20T17:54:08.899Z,50.70
2019-04-20T17:56:38.683Z,51.20
2019-04-20T17:59:08.252Z,51.50
2019-04-20T18:01:51.191Z,52.10
2019-04-20T18:04:44.440Z,51.90
2019-04-20T18:06:57.990Z,52.50
2019-04-20T18:09:38.706Z,53.00
2019-04-20T18:11:51.136Z,53.30
2019-04-20T18:14:40.247Z,53.80
2019-04-20T18:17:13.885Z,53.60
2019-04-20T18:19:38.670Z,54.00
2019-04-20T18:22:10.020Z,53.90
2019-04-20T18:25:02.615Z,54.70
2019-04-20T18:27:31.930Z,55.00
2019-04-20T18:30:01.348Z,55.10
2019-04-20T18:32:27.449Z,55.00
2019-04-20T18:35:05.349Z,55.50
2019-04-20T18:37:34.470Z,55.70
2019-04-20T18:40:11.131Z,55.50
2019-04-20T18:42:42.049Z,56.30
2019-04-20T18:45:28.060Z,56.90
2019-04-20T18:48:04.406Z,57.10
2019-04-20T18:50:22.169Z,57.20
2019-04-20T18:52:45.389Z,57.90
2019-04-20T18:55:22.881Z,58.00
2019-04-20T18:57:46.897Z,58.60
2019-04-20T19:00:26.063Z,58.90
2019-04-20T19:02:52.407Z,58.90
2019-04-20T19:05:21.982Z,59.70
2019-04-20T19:07:59.985Z,60.60
2019-04-20T19:10:30.867Z,60.80
2019-04-20T19:13:01.579Z,61.70
2019-04-20T19:15:51.170Z,62.30
2019-04-20T19:18:23.797Z,62.80
2019-04-20T19:20:45.541Z,62.40
2019-04-20T19:23:15.044Z,62.40
2019-04-20T19:25:45.782Z,63.10
2019-04-20T19:28:22.737Z,63.90
2019-04-20T19:30:56.294Z,64.30
2019-04-20T19:33:33.253Z,65.40
2019-04-20T19:35:58.101Z,66.00
2019-04-20T19:38:29.518Z,66.70
2019-04-20T19:41:01.973Z,68.60
2019-04-20T19:43:31.685Z,68.60
2019-04-20T19:46:35.185Z,70.60
2019-04-20T19:48:43.260Z,71.70
2019-04-20T19:51:27.187Z,72.50
2019-04-20T19:53:52.854Z,72.90
2019-04-20T19:56:22.558Z,73.50
2019-04-20T19:58:53.713Z,75.10
2019-04-20T20:01:09.398Z,77.30
2019-04-20T20:03:39.568Z,79.30
2019-04-20T20:06:18.667Z,79.70
2019-04-20T20:08:43.472Z,79.40
2019-04-20T20:11:18.432Z,79.30
2019-04-20T20:13:49.600Z,79.10
2019-04-20T20:16:23.510Z,79.60
2019-04-20T20:18:58.616Z,79.90
2019-04-20T20:21:31.279Z,80.40
2019-04-20T20:23:48.201Z,80.80
2019-04-20T20:26:23.146Z,81.40
2019-04-20T20:28:57.736Z,83.30
2019-04-20T20:31:29.793Z,84.20
2019-04-20T20:34:07.351Z,84.80
2019-04-20T20:36:38.335Z,85.40
2019-04-20T20:39:07.045Z,86.40
2019-04-20T20:41:31.780Z,87.20
2019-04-20T20:44:06.927Z,86.00
2019-04-20T20:46:37.930Z,85.70
2019-04-20T20:49:16.554Z,86.20
2019-04-20T20:52:08.357Z,86.20
2019-04-20T20:54:15.832Z,87.90
2019-04-20T20:56:46.763Z,87.10
2019-04-20T20:59:13.995Z,87.30
2019-04-20T21:01:47.973Z,88.30
2019-04-20T21:04:09.802Z,88.60
2019-04-20T21:06:40.283Z,88.80
2019-04-20T21:09:10.381Z,89.50
2019-04-20T21:11:42.282Z,90.20
2019-04-20T21:14:21.037Z,90.40
2019-04-20T21:16:53.475Z,90.60
2019-04-20T21:19:28.578Z,90.80
2019-04-20T21:21:57.111Z,90.70
2019-04-20T21:24:26.793Z,90.90
2019-04-20T21:27:00.678Z,90.60
2019-04-20T21:29:35.881Z,90.70
2019-04-20T21:32:05.140Z,90.60
2019-04-20T21:34:31.216Z,90.20
2019-04-20T21:37:03.477Z,90.20
2019-04-20T21:39:40.981Z,90.00
2019-04-20T21:42:10.330Z,90.50
2019-04-20T21:44:38.807Z,90.90
2019-04-20T21:47:06.862Z,91.30
2019-04-20T21:49:49.715Z,91.20
2019-04-20T21:52:19.334Z,91.30
2019-04-20T21:54:40.100Z,91.10
2019-04-20T21:57:11.541Z,91.40
2019-04-20T21:59:44.603Z,91.60
2019-04-20T22:02:19.470Z,91.90
2019-04-20T22:04:43.163Z,92.10
2019-04-20T22:07:12.617Z,92.20
2019-04-20T22:09:46.734Z,92.10
2019-04-20T22:12:13.960Z,92.40
2019-04-20T22:14:43.967Z,92.40
2019-04-20T22:17:20.630Z,92.50
2019-04-20T22:19:58.629Z,92.50
2019-04-20T22:22:34.904Z,92.50
2019-04-20T22:25:03.829Z,92.60
2019-04-20T22:27:22.420Z,92.50
2019-04-20T22:29:50.210Z,93.10
2019-04-20T22:32:20.809Z,92.90
2019-04-20T22:34:57.067Z,93.10
2019-04-20T22:37:28.310Z,93.10
2019-04-20T22:39:56.637Z,93.20
2019-04-20T22:42:32.499Z,93.10
2019-04-20T22:45:03.562Z,93.20
2019-04-20T22:47:31.860Z,93.20
2019-04-20T22:50:20.364Z,93.60
2019-04-20T22:52:44.329Z,93.80
2019-04-20T22:55:31.233Z,93.80
2019-04-20T22:57:52.394Z,93.90
2019-04-20T23:00:14.550Z,94.10
2019-04-20T23:02:42.720Z,94.40
2019-04-20T23:05:13.154Z,94.20
2019-04-20T23:07:42.634Z,94.40
2019-04-20T23:10:13.228Z,94.30
2019-04-20T23:12:46.907Z,94.70
2019-04-20T23:15:16.350Z,94.30
2019-04-20T23:17:50.080Z,94.40
2019-04-20T23:20:25.317Z,94.60
2019-04-20T23:22:51.375Z,94.80
2019-04-20T23:25:20.998Z,95.00
2019-04-20T23:27:57.581Z,95.20
2019-04-20T23:30:28.290Z,95.20
2019-04-20T23:32:53.910Z,95.50
2019-04-20T23:35:26.259Z,95.50
2019-04-20T23:38:01.570Z,95.40
2019-04-20T23:40:25.752Z,95.60
2019-04-20T23:42:57.990Z,95.60
2019-04-20T23:45:37.018Z,95.90
2019-04-20T23:48:06.764Z,96.00
2019-04-20T23:50:50.468Z,96.10
2019-04-20T23:53:25.739Z,95.90
2019-04-20T23:55:39.365Z,95.90
2019-04-20T23:58:11.202Z,95.90
